Lublin, Wisconsin
Current Conditions -  °F | °C
As of 6:35 AM on Friday 24 Oct 2014 (Local Time) from KMDZ Reporting Station
Moderate Fog Moderate Fog  
Wind Chill: 43°   Ceiling: 200
Heat Index: 43°   Visibility: 0.25mi
Dew Point: 43°   Wind: 3mph
Humidity: 100%   Direction: 190°S
Pressure: 30"   Gusts: NA
Location:  45.08°N, 90.72°W
Report Text: KMDZ 241135Z AUTO 19003KT 1/4SM FG OVC002 06/06 A3000 RMK AO2 T00620062
Loading
Personal Weather Stations






























Interactive Weather Map
Tropical Storm Tracking
New forecast layout! Learn more

10-Day Weather Forecast

Advertisements
Track Severe Weather on mobile